createdAt,value
2022-08-17T00:00:44.113Z,22.40
2022-08-17T00:03:18.309Z,21.38
2022-08-17T00:05:50.920Z,21.65
2022-08-17T00:08:42.005Z,22.38
2022-08-17T00:11:17.362Z,21.38
2022-08-17T00:13:51.530Z,24.35
2022-08-17T00:16:55.313Z,21.63
2022-08-17T00:19:23.067Z,20.55
2022-08-17T00:22:31.864Z,21.02
2022-08-17T00:24:44.759Z,23.42
2022-08-17T00:27:13.253Z,23.70
2022-08-17T00:29:42.257Z,26.60
2022-08-17T00:33:14.350Z,22.45
2022-08-17T00:34:59.329Z,22.83
2022-08-17T00:37:27.669Z,27.50
2022-08-17T00:39:56.199Z,26.65
2022-08-17T00:42:28.857Z,26.92
2022-08-17T00:44:59.356Z,23.88
2022-08-17T00:47:30.150Z,29.27
2022-08-17T00:49:58.784Z,24.45
2022-08-17T00:52:35.422Z,25.23
2022-08-17T00:55:06.179Z,24.20
2022-08-17T00:57:45.053Z,24.58
2022-08-17T01:00:21.399Z,30.23
2022-08-17T01:02:49.892Z,24.85
2022-08-17T01:05:25.449Z,25.33
2022-08-17T01:07:55.159Z,25.50
2022-08-17T01:11:00.083Z,25.10
2022-08-17T01:13:20.910Z,24.10
2022-08-17T01:15:57.833Z,25.00
2022-08-17T01:18:27.410Z,24.85
2022-08-17T01:21:01.839Z,27.57
2022-08-17T01:23:30.946Z,24.05
2022-08-17T01:26:02.772Z,26.35
2022-08-17T01:28:54.437Z,23.75
2022-08-17T01:31:25.463Z,26.90
2022-08-17T01:33:54.569Z,28.00
2022-08-17T01:36:23.821Z,24.33
2022-08-17T01:38:52.200Z,24.92
2022-08-17T01:41:22.708Z,23.70
2022-08-17T01:46:32.153Z,26.40
2022-08-17T01:49:01.660Z,25.23
2022-08-17T01:51:32.913Z,23.13
2022-08-17T01:54:08.523Z,24.60
2022-08-17T01:56:43.825Z,28.73
2022-08-17T01:59:18.366Z,23.65
2022-08-17T02:01:47.082Z,23.63
2022-08-17T02:04:15.639Z,25.88
2022-08-17T02:06:53.553Z,28.55
2022-08-17T02:09:29.809Z,26.55
2022-08-17T02:12:37.733Z,29.42
2022-08-17T02:14:48.981Z,26.60
2022-08-17T02:17:17.861Z,24.58
2022-08-17T02:19:46.237Z,28.27
2022-08-17T02:22:18.269Z,26.58
2022-08-17T02:25:00.419Z,29.80
2022-08-17T02:27:30.957Z,30.00
2022-08-17T02:29:59.334Z,25.13
2022-08-17T02:32:28.755Z,26.42
2022-08-17T02:34:58.504Z,26.88
2022-08-17T02:37:28.977Z,26.27
2022-08-17T02:42:33.923Z,25.25
2022-08-17T02:45:05.252Z,30.83
2022-08-17T02:47:34.324Z,26.98
2022-08-17T02:50:04.002Z,30.10
2022-08-17T02:52:41.954Z,28.83
2022-08-17T02:55:25.081Z,27.15
2022-08-17T02:57:53.951Z,26.63
2022-08-17T03:00:25.876Z,27.33
2022-08-17T03:02:56.514Z,26.25
2022-08-17T03:05:28.245Z,26.73
2022-08-17T03:07:57.429Z,24.17
2022-08-17T03:10:26.908Z,27.55
2022-08-17T03:12:55.722Z,32.45
2022-08-17T03:15:27.553Z,31.23
2022-08-17T03:17:57.216Z,27.65
2022-08-17T03:20:27.317Z,27.97
2022-08-17T03:23:02.009Z,28.23
2022-08-17T03:25:35.952Z,26.15
2022-08-17T03:28:06.823Z,26.80
2022-08-17T03:30:36.605Z,27.17
2022-08-17T03:33:07.295Z,28.33
2022-08-17T03:35:37.638Z,26.70
2022-08-17T03:38:07.537Z,27.38
2022-08-17T03:40:56.568Z,29.58
2022-08-17T03:43:25.503Z,31.60
2022-08-17T03:46:28.453Z,28.15
2022-08-17T03:49:22.923Z,29.83
2022-08-17T03:52:10.316Z,27.92
2022-08-17T03:54:58.111Z,29.02
2022-08-17T03:57:26.870Z,27.98
2022-08-17T03:59:56.044Z,30.52
2022-08-17T04:02:29.458Z,27.02
2022-08-17T04:04:58.423Z,30.80
2022-08-17T04:07:30.006Z,27.65
2022-08-17T04:09:59.530Z,28.95
2022-08-17T04:12:31.141Z,28.70
2022-08-17T04:14:59.873Z,29.10
2022-08-17T04:17:31.197Z,31.98
2022-08-17T04:19:59.578Z,28.48
2022-08-17T04:22:30.152Z,28.88
2022-08-17T04:25:24.206Z,33.65
2022-08-17T04:30:20.923Z,31.80
2022-08-17T04:33:03.746Z,33.47
2022-08-17T04:35:48.253Z,32.60
2022-08-17T04:38:20.198Z,35.30
2022-08-17T04:41:07.979Z,30.13
2022-08-17T04:43:39.785Z,36.17
2022-08-17T04:46:11.167Z,35.22
2022-08-17T04:48:43.148Z,34.67
2022-08-17T04:51:16.883Z,34.05
2022-08-17T04:53:54.489Z,36.55
2022-08-17T04:56:25.935Z,36.67
2022-08-17T04:58:58.145Z,39.45
2022-08-17T05:01:29.245Z,36.63
2022-08-17T05:03:59.855Z,32.92
2022-08-17T05:06:30.753Z,37.88
2022-08-17T05:08:59.946Z,38.58
2022-08-17T05:11:30.089Z,37.75
2022-08-17T05:13:58.907Z,36.72
2022-08-17T05:16:28.698Z,34.78
2022-08-17T05:18:58.648Z,33.67
2022-08-17T05:21:27.522Z,33.88
2022-08-17T05:23:58.563Z,34.13
2022-08-17T05:26:29.332Z,35.88
2022-08-17T05:29:03.001Z,38.38
2022-08-17T05:31:31.497Z,38.72
2022-08-17T05:34:02.281Z,33.78
2022-08-17T05:36:41.764Z,39.95
2022-08-17T05:39:16.277Z,38.08
2022-08-17T05:41:47.726Z,37.90
2022-08-17T05:44:17.145Z,35.40
2022-08-17T05:46:51.930Z,34.50
2022-08-17T05:49:27.685Z,33.65
2022-08-17T05:52:23.529Z,34.08
2022-08-17T05:55:32.774Z,43.13
2022-08-17T05:58:13.170Z,43.50
2022-08-17T06:01:03.219Z,43.90
2022-08-17T06:03:43.353Z,44.88
2022-08-17T06:06:31.319Z,45.95
2022-08-17T06:09:24.807Z,44.33
2022-08-17T06:12:21.453Z,47.17
2022-08-17T06:15:04.181Z,52.00
2022-08-17T06:17:33.942Z,43.95
2022-08-17T06:20:08.399Z,40.40
2022-08-17T06:22:44.742Z,41.83
2022-08-17T06:25:38.108Z,40.45
2022-08-17T06:28:14.231Z,41.47
2022-08-17T06:31:01.114Z,38.95
2022-08-17T06:33:36.880Z,41.13
2022-08-17T06:36:30.149Z,40.92
2022-08-17T06:39:31.497Z,44.47
2022-08-17T06:43:04.981Z,40.35
2022-08-17T06:45:20.285Z,41.00
2022-08-17T06:48:26.017Z,43.25
2022-08-17T06:51:00.025Z,42.08
2022-08-17T06:53:34.813Z,45.50
2022-08-17T06:56:13.566Z,43.47
2022-08-17T06:58:44.876Z,42.78
2022-08-17T07:01:24.895Z,36.10
2022-08-17T07:03:59.433Z,37.47
2022-08-17T07:06:38.487Z,34.70
2022-08-17T07:09:15.827Z,38.08
2022-08-17T07:11:52.903Z,37.72
2022-08-17T07:14:43.334Z,37.05
2022-08-17T07:17:15.657Z,39.50
2022-08-17T07:19:46.847Z,37.90
2022-08-17T07:22:59.557Z,36.15
2022-08-17T07:25:33.921Z,34.80
2022-08-17T07:28:07.437Z,39.95
2022-08-17T07:30:46.892Z,33.28
2022-08-17T07:33:20.493Z,35.60
2022-08-17T07:35:50.946Z,35.33
2022-08-17T07:38:33.311Z,38.15
2022-08-17T07:41:06.806Z,34.22
2022-08-17T07:43:41.187Z,38.78
2022-08-17T07:46:52.800Z,36.88
2022-08-17T07:49:31.690Z,38.42
2022-08-17T07:52:50.843Z,35.83
2022-08-17T07:55:35.009Z,35.03
2022-08-17T07:58:03.614Z,34.55
2022-08-17T08:00:33.662Z,34.35
2022-08-17T08:03:15.517Z,34.38
2022-08-17T08:06:00.794Z,38.25
2022-08-17T08:08:42.818Z,38.60
2022-08-17T08:11:27.963Z,40.25
2022-08-17T08:14:29.322Z,38.55
2022-08-17T08:17:05.872Z,38.22
2022-08-17T08:19:34.329Z,38.30
2022-08-17T08:22:11.197Z,37.97
2022-08-17T08:24:55.586Z,39.78
2022-08-17T08:27:27.286Z,37.33
2022-08-17T08:30:02.955Z,39.92
2022-08-17T08:32:50.302Z,35.63
2022-08-17T08:35:44.495Z,37.08
2022-08-17T08:38:44.346Z,37.83
2022-08-17T08:41:55.390Z,37.10
2022-08-17T08:45:00.282Z,33.72
2022-08-17T08:48:05.099Z,31.90
2022-08-17T08:50:37.911Z,33.83
2022-08-17T08:53:30.432Z,32.95
2022-08-17T08:56:16.565Z,29.92
2022-08-17T08:59:10.669Z,28.08
2022-08-17T09:01:41.917Z,30.73
2022-08-17T09:05:10.601Z,32.50
2022-08-17T09:07:42.364Z,26.87
2022-08-17T09:10:27.035Z,24.80
2022-08-17T09:13:22.121Z,23.52
2022-08-17T09:16:15.328Z,24.67
2022-08-17T09:19:01.393Z,24.52
2022-08-17T09:21:48.735Z,24.25
2022-08-17T09:24:28.488Z,23.52
2022-08-17T09:27:15.157Z,22.27
2022-08-17T09:29:54.324Z,21.95
2022-08-17T09:32:39.406Z,18.95
2022-08-17T09:35:20.748Z,22.55
2022-08-17T09:38:10.251Z,25.83
2022-08-17T09:41:01.643Z,34.22
2022-08-17T09:44:23.382Z,36.85
2022-08-17T09:47:10.344Z,35.20
2022-08-17T09:49:49.352Z,33.70
2022-08-17T09:52:24.963Z,33.95
2022-08-17T09:54:55.919Z,35.55
2022-08-17T09:57:59.034Z,33.95
2022-08-17T10:00:35.654Z,32.15
2022-08-17T10:03:08.801Z,26.70
2022-08-17T10:05:59.903Z,28.40
2022-08-17T10:09:08.305Z,28.83
2022-08-17T10:12:02.466Z,32.20
2022-08-17T10:14:44.187Z,37.58
2022-08-17T10:17:13.841Z,32.35
2022-08-17T10:20:05.975Z,33.58
2022-08-17T10:23:07.629Z,35.65
2022-08-17T10:26:01.191Z,32.28
2022-08-17T10:28:39.062Z,34.03
2022-08-17T10:31:33.838Z,34.67
2022-08-17T10:34:42.028Z,35.75
2022-08-17T10:37:19.639Z,33.92
2022-08-17T10:40:12.111Z,36.55
2022-08-17T10:42:55.197Z,32.58
2022-08-17T10:45:35.009Z,32.85
2022-08-17T10:48:07.197Z,31.40
2022-08-17T10:50:56.183Z,29.92
2022-08-17T10:53:48.597Z,32.60
2022-08-17T10:56:23.490Z,29.25
2022-08-17T10:58:59.570Z,26.52
2022-08-17T11:01:49.520Z,27.80
2022-08-17T11:04:18.027Z,26.25
2022-08-17T11:07:16.436Z,24.95
2022-08-17T11:10:03.624Z,22.67
2022-08-17T11:12:38.089Z,22.35
2022-08-17T11:15:31.499Z,20.55
2022-08-17T11:18:12.157Z,19.00
2022-08-17T11:21:17.431Z,17.70
2022-08-17T11:23:45.681Z,15.65
2022-08-17T11:26:29.711Z,15.48
2022-08-17T11:29:05.189Z,14.75
2022-08-17T11:31:44.863Z,13.63
2022-08-17T11:34:26.237Z,15.05
2022-08-17T11:37:03.784Z,15.85
2022-08-17T11:40:06.935Z,15.82
2022-08-17T11:43:09.579Z,15.65
2022-08-17T11:45:53.736Z,15.80
2022-08-17T11:48:55.884Z,17.40
2022-08-17T11:51:55.811Z,16.17
2022-08-17T11:54:33.333Z,16.13
2022-08-17T11:57:25.790Z,16.45
2022-08-17T12:00:36.268Z,18.45
2022-08-17T12:03:34.560Z,16.98
2022-08-17T12:06:17.685Z,16.45
2022-08-17T12:08:55.212Z,15.98
2022-08-17T12:11:58.767Z,14.60
2022-08-17T12:14:45.492Z,15.98
2022-08-17T12:17:39.217Z,14.75
2022-08-17T12:20:32.422Z,15.88
2022-08-17T12:23:15.818Z,16.13
2022-08-17T12:26:17.574Z,14.77
2022-08-17T12:28:50.470Z,16.15
2022-08-17T12:31:27.192Z,14.05
2022-08-17T12:33:56.195Z,16.88
2022-08-17T12:36:28.247Z,15.10
2022-08-17T12:39:12.835Z,16.02
2022-08-17T12:41:50.349Z,15.73
2022-08-17T12:44:31.714Z,15.88
2022-08-17T12:47:04.549Z,16.00
2022-08-17T12:49:38.463Z,15.80
2022-08-17T12:52:19.919Z,16.58
2022-08-17T12:54:54.138Z,14.70
2022-08-17T12:57:25.949Z,15.07
2022-08-17T12:59:58.929Z,13.23
2022-08-17T13:02:32.810Z,14.65
2022-08-17T13:05:02.155Z,12.90
2022-08-17T13:07:42.604Z,13.77
2022-08-17T13:12:44.724Z,13.65
2022-08-17T13:15:20.543Z,12.23
2022-08-17T13:17:59.497Z,13.63
2022-08-17T13:20:27.952Z,13.48
2022-08-17T13:22:59.844Z,13.02
2022-08-17T13:25:29.832Z,12.90
2022-08-17T13:27:58.803Z,14.52
2022-08-17T13:30:32.880Z,13.77
2022-08-17T13:33:04.705Z,12.50
2022-08-17T13:35:50.250Z,12.23
2022-08-17T13:38:41.365Z,11.52
2022-08-17T13:41:29.829Z,11.95
2022-08-17T13:43:58.093Z,11.75
2022-08-17T13:46:32.688Z,10.23
2022-08-17T13:49:12.227Z,11.50
2022-08-17T13:51:46.397Z,11.80
2022-08-17T13:54:27.085Z,10.85
2022-08-17T13:57:21.806Z,11.25
2022-08-17T13:59:58.170Z,11.57
2022-08-17T14:02:28.913Z,11.50
2022-08-17T14:04:58.987Z,10.55
2022-08-17T14:07:33.862Z,11.27
2022-08-17T14:10:29.865Z,9.80
2022-08-17T14:12:58.271Z,10.20
2022-08-17T14:15:54.912Z,10.90
2022-08-17T14:18:18.981Z,10.90
2022-08-17T14:21:08.748Z,9.95
2022-08-17T14:23:37.615Z,9.27
2022-08-17T14:26:06.008Z,8.90
2022-08-17T14:28:36.390Z,9.32
2022-08-17T14:31:08.417Z,9.80
2022-08-17T14:33:37.375Z,10.63
2022-08-17T14:36:09.801Z,9.50
2022-08-17T14:38:41.873Z,9.23
2022-08-17T14:41:11.185Z,10.00
2022-08-17T14:43:39.956Z,11.02
2022-08-17T14:46:08.271Z,10.00
2022-08-17T14:48:38.680Z,9.90
2022-08-17T14:51:07.209Z,9.98
2022-08-17T14:53:36.647Z,10.20
2022-08-17T14:56:08.968Z,9.98
2022-08-17T14:58:39.007Z,11.50
2022-08-17T15:01:12.484Z,11.15
2022-08-17T15:03:42.035Z,11.98
2022-08-17T15:06:14.650Z,11.20
2022-08-17T15:08:44.763Z,12.85
2022-08-17T15:11:14.758Z,13.38
2022-08-17T15:13:52.904Z,12.17
2022-08-17T15:16:22.291Z,11.68
2022-08-17T15:18:52.651Z,12.32
2022-08-17T15:21:22.297Z,12.48
2022-08-17T15:23:53.429Z,10.57
2022-08-17T15:26:26.209Z,11.40
2022-08-17T15:28:56.693Z,11.70
2022-08-17T15:31:31.970Z,10.43
2022-08-17T15:34:00.906Z,10.90
2022-08-17T15:36:29.254Z,10.57
2022-08-17T15:38:59.508Z,11.27
2022-08-17T15:41:28.405Z,10.38
2022-08-17T15:43:57.077Z,10.68
2022-08-17T15:46:26.302Z,11.00
2022-08-17T15:49:00.277Z,10.60
2022-08-17T15:51:34.972Z,9.82
2022-08-17T15:54:19.241Z,10.07
2022-08-17T15:56:50.989Z,9.23
2022-08-17T15:59:19.457Z,9.57
2022-08-17T16:03:15.302Z,7.90
2022-08-17T16:04:40.247Z,8.75
2022-08-17T16:07:13.444Z,9.25
2022-08-17T16:09:42.372Z,7.90
2022-08-17T16:12:14.373Z,9.48
2022-08-17T16:14:43.740Z,7.68
2022-08-17T16:17:40.080Z,8.50
2022-08-17T16:20:02.228Z,8.00
2022-08-17T16:22:39.390Z,7.53
2022-08-17T16:25:15.071Z,7.30
2022-08-17T16:27:44.390Z,7.28
2022-08-17T16:30:17.600Z,8.93
2022-08-17T16:32:47.412Z,3.63
2022-08-17T16:35:20.503Z,4.43
2022-08-17T16:37:49.006Z,4.18
2022-08-17T16:40:17.533Z,3.78
2022-08-17T16:42:48.481Z,4.50
2022-08-17T16:45:23.582Z,3.60
2022-08-17T16:47:55.163Z,3.67
2022-08-17T16:50:24.054Z,2.73
2022-08-17T16:52:52.666Z,3.17
2022-08-17T16:55:22.662Z,2.67
2022-08-17T16:57:51.061Z,2.40
2022-08-17T17:00:20.947Z,3.65
2022-08-17T17:02:49.770Z,2.90
2022-08-17T17:05:33.395Z,3.28
2022-08-17T17:08:09.348Z,3.15
2022-08-17T17:10:37.750Z,3.88
2022-08-17T17:13:16.909Z,3.00
2022-08-17T17:16:06.433Z,3.55
2022-08-17T17:19:35.115Z,3.10
2022-08-17T17:22:13.431Z,4.35
2022-08-17T17:24:50.384Z,4.07
2022-08-17T17:27:29.621Z,5.32
2022-08-17T17:30:03.971Z,4.80
2022-08-17T17:32:38.078Z,4.80
2022-08-17T17:35:38.017Z,3.55
2022-08-17T17:38:15.297Z,3.50
2022-08-17T17:40:50.942Z,4.15
2022-08-17T17:43:39.045Z,6.65
2022-08-17T17:46:27.895Z,6.10
2022-08-17T17:49:01.410Z,4.70
2022-08-17T17:52:06.302Z,4.03
2022-08-17T17:54:40.278Z,3.53
2022-08-17T17:57:37.211Z,3.38
2022-08-17T18:00:11.680Z,2.58
2022-08-17T18:03:05.138Z,3.17
2022-08-17T18:05:36.750Z,4.00
2022-08-17T18:08:11.913Z,4.28
2022-08-17T18:10:48.921Z,5.43
2022-08-17T18:13:29.702Z,7.05
2022-08-17T18:16:01.063Z,8.88
2022-08-17T18:18:38.259Z,7.70
2022-08-17T18:21:20.724Z,9.45
2022-08-17T18:24:00.985Z,11.05
2022-08-17T18:26:37.837Z,10.05
2022-08-17T18:29:28.087Z,11.30
2022-08-17T18:32:32.416Z,10.35
2022-08-17T18:35:27.829Z,11.25
2022-08-17T18:38:20.638Z,11.77
2022-08-17T18:41:21.840Z,12.05
2022-08-17T18:44:22.255Z,12.70
2022-08-17T18:47:28.630Z,12.65
2022-08-17T18:50:28.073Z,7.93
2022-08-17T18:53:30.346Z,7.82
2022-08-17T18:56:20.663Z,9.07
2022-08-17T18:59:00.680Z,7.10
2022-08-17T19:01:53.555Z,5.00
2022-08-17T19:04:36.589Z,3.83
2022-08-17T19:07:07.334Z,3.83
2022-08-17T19:09:42.758Z,3.40
2022-08-17T19:12:26.963Z,3.33
2022-08-17T19:14:58.513Z,3.63
2022-08-17T19:17:42.178Z,4.20
2022-08-17T19:20:14.546Z,4.82
2022-08-17T19:22:56.443Z,5.57
2022-08-17T19:25:30.670Z,5.90
2022-08-17T19:28:22.630Z,6.32
2022-08-17T19:30:57.737Z,7.03
2022-08-17T19:33:32.837Z,7.68
2022-08-17T19:36:11.876Z,7.13
2022-08-17T19:39:04.574Z,5.80
2022-08-17T19:42:05.538Z,6.47
2022-08-17T19:44:48.808Z,4.95
2022-08-17T19:47:54.753Z,5.10
2022-08-17T19:50:39.217Z,5.95
2022-08-17T19:54:01.705Z,5.38
2022-08-17T19:56:44.691Z,5.85
2022-08-17T19:59:22.056Z,5.18
2022-08-17T20:02:03.063Z,4.60
2022-08-17T20:04:42.627Z,5.85
2022-08-17T20:07:20.288Z,5.00
2022-08-17T20:10:03.764Z,4.75
2022-08-17T20:12:38.640Z,6.05
2022-08-17T20:15:22.121Z,5.50
2022-08-17T20:17:50.999Z,5.50
2022-08-17T20:20:38.320Z,4.70
2022-08-17T20:23:31.163Z,4.65
2022-08-17T20:26:34.880Z,4.60
2022-08-17T20:29:14.358Z,3.90
2022-08-17T20:31:54.629Z,3.90
2022-08-17T20:34:36.685Z,2.97
2022-08-17T20:37:15.438Z,3.40
2022-08-17T20:40:07.848Z,3.08
2022-08-17T20:42:37.016Z,3.83
2022-08-17T20:45:20.710Z,3.28
2022-08-17T20:48:18.506Z,3.67
2022-08-17T20:50:47.389Z,4.15
2022-08-17T20:53:47.623Z,4.03
2022-08-17T20:56:43.884Z,3.45
2022-08-17T20:59:40.160Z,3.20
2022-08-17T21:02:18.388Z,4.15
2022-08-17T21:04:50.394Z,3.10
2022-08-17T21:07:41.144Z,3.42
2022-08-17T21:10:21.241Z,3.65
2022-08-17T21:13:02.736Z,3.45
2022-08-17T21:15:51.792Z,4.22
2022-08-17T21:18:29.094Z,3.58
2022-08-17T21:21:17.730Z,4.32
2022-08-17T21:24:14.692Z,3.72
2022-08-17T21:27:01.901Z,4.63
2022-08-17T21:29:33.936Z,4.13
2022-08-17T21:32:09.468Z,4.57
2022-08-17T21:34:43.233Z,4.75
2022-08-17T21:37:23.800Z,4.97
2022-08-17T21:44:58.088Z,5.18
2022-08-17T21:47:29.544Z,5.05
2022-08-17T21:50:18.726Z,4.90
2022-08-17T21:52:48.933Z,3.67
2022-08-17T21:55:22.017Z,4.20
2022-08-17T21:57:53.250Z,5.70
2022-08-17T22:00:39.300Z,6.05
2022-08-17T22:03:23.455Z,4.35
2022-08-17T22:05:51.915Z,5.47
2022-08-17T22:08:24.001Z,5.97
2022-08-17T22:11:02.356Z,6.97
2022-08-17T22:13:30.724Z,7.03
2022-08-17T22:16:15.454Z,6.55
2022-08-17T22:18:58.791Z,7.15
2022-08-17T22:24:22.744Z,6.28
2022-08-17T22:27:12.874Z,6.00
2022-08-17T22:29:57.900Z,5.38
2022-08-17T22:32:43.809Z,5.97
2022-08-17T22:35:26.690Z,5.72
2022-08-17T22:37:57.041Z,5.53
2022-08-17T22:40:31.168Z,6.13
2022-08-17T22:43:01.649Z,6.57
2022-08-17T22:45:30.420Z,6.88
2022-08-17T22:48:00.968Z,6.32
2022-08-17T22:53:43.009Z,7.03
2022-08-17T22:56:37.107Z,6.38
2022-08-17T22:59:20.728Z,6.93
2022-08-17T23:02:13.687Z,6.38
2022-08-17T23:04:57.499Z,6.38
2022-08-17T23:07:26.002Z,7.55
2022-08-17T23:09:54.902Z,7.28
2022-08-17T23:12:26.539Z,7.75
2022-08-17T23:15:00.933Z,8.38
2022-08-17T23:17:36.941Z,7.78
2022-08-17T23:20:24.369Z,7.80
2022-08-17T23:23:19.644Z,7.75
2022-08-17T23:25:50.244Z,7.80
2022-08-17T23:28:18.627Z,7.55
2022-08-17T23:30:48.898Z,7.47
2022-08-17T23:33:29.992Z,8.00
2022-08-17T23:36:02.361Z,7.93
2022-08-17T23:38:32.906Z,7.70
2022-08-17T23:43:31.769Z,7.00
2022-08-17T23:46:00.751Z,6.97
2022-08-17T23:48:35.877Z,6.65
2022-08-17T23:51:10.776Z,7.53
2022-08-17T23:53:44.740Z,7.35
2022-08-17T23:56:14.081Z,7.40
2022-08-17T23:58:44.728Z,6.65
